sensor_id;sensor_type;location;lat;lon;timestamp;pressure;altitude;pressure_sealevel;temperature;humidity
13732;BME280;6937;56.096;12.664;2022-08-18T00:02:07;101023.78;;;18.23;100.00
13732;BME280;6937;56.096;12.664;2022-08-18T00:04:34;101018.00;;;18.18;100.00
13732;BME280;6937;56.096;12.664;2022-08-18T00:07:08;101019.00;;;18.17;100.00
13732;BME280;6937;56.096;12.664;2022-08-18T00:09:36;101010.47;;;18.12;100.00
13732;BME280;6937;56.096;12.664;2022-08-18T00:12:14;101002.66;;;18.09;100.00
13732;BME280;6937;56.096;12.664;2022-08-18T00:14:41;101006.13;;;18.01;100.00
13732;BME280;6937;56.096;12.664;2022-08-18T00:17:06;101005.28;;;18.01;100.00
13732;BME280;6937;56.096;12.664;2022-08-18T00:19:32;101004.97;;;18.04;100.00
13732;BME280;6937;56.096;12.664;2022-08-18T00:21:57;100989.91;;;18.01;100.00
13732;BME280;6937;56.096;12.664;2022-08-18T00:24:23;100992.75;;;18.00;100.00
13732;BME280;6937;56.096;12.664;2022-08-18T00:26:49;100995.31;;;18.01;100.00
13732;BME280;6937;56.096;12.664;2022-08-18T00:29:14;100977.56;;;17.99;100.00
13732;BME280;6937;56.096;12.664;2022-08-18T00:31:40;100983.28;;;18.13;100.00
13732;BME280;6937;56.096;12.664;2022-08-18T00:34:05;100969.75;;;18.13;100.00
13732;BME280;6937;56.096;12.664;2022-08-18T00:36:32;100969.22;;;18.10;100.00
13732;BME280;6937;56.096;12.664;2022-08-18T00:38:59;100967.81;;;18.06;100.00
13732;BME280;6937;56.096;12.664;2022-08-18T00:41:25;100954.06;;;17.99;100.00
13732;BME280;6937;56.096;12.664;2022-08-18T00:43:53;100948.56;;;17.91;100.00
13732;BME280;6937;56.096;12.664;2022-08-18T00:46:26;100954.97;;;17.90;100.00
13732;BME280;6937;56.096;12.664;2022-08-18T00:48:52;100949.88;;;17.87;100.00
13732;BME280;6937;56.096;12.664;2022-08-18T00:51:23;100941.31;;;17.92;100.00
13732;BME280;6937;56.096;12.664;2022-08-18T00:54:02;100941.00;;;17.95;100.00
13732;BME280;6937;56.096;12.664;2022-08-18T00:56:36;100952.50;;;17.97;100.00
13732;BME280;6937;56.096;12.664;2022-08-18T00:59:15;100934.81;;;18.02;100.00
13732;BME280;6937;56.096;12.664;2022-08-18T01:01:43;100924.38;;;17.90;100.00
13732;BME280;6937;56.096;12.664;2022-08-18T01:04:17;100943.72;;;17.95;100.00
13732;BME280;6937;56.096;12.664;2022-08-18T01:06:52;100935.91;;;17.92;100.00
13732;BME280;6937;56.096;12.664;2022-08-18T01:09:18;100930.25;;;17.85;100.00
13732;BME280;6937;56.096;12.664;2022-08-18T01:11:44;100931.00;;;17.77;100.00
13732;BME280;6937;56.096;12.664;2022-08-18T01:14:11;100922.97;;;17.68;100.00
13732;BME280;6937;56.096;12.664;2022-08-18T01:16:40;100918.19;;;17.62;100.00
13732;BME280;6937;56.096;12.664;2022-08-18T01:19:35;100923.28;;;17.55;100.00
13732;BME280;6937;56.096;12.664;2022-08-18T01:22:36;100935.72;;;17.58;100.00
13732;BME280;6937;56.096;12.664;2022-08-18T01:25:05;100917.78;;;17.47;100.00
13732;BME280;6937;56.096;12.664;2022-08-18T01:27:50;100924.13;;;17.38;100.00
13732;BME280;6937;56.096;12.664;2022-08-18T01:30:16;100921.47;;;17.28;100.00
13732;BME280;6937;56.096;12.664;2022-08-18T01:32:43;100931.94;;;17.41;100.00
13732;BME280;6937;56.096;12.664;2022-08-18T01:35:12;100924.06;;;17.48;100.00
13732;BME280;6937;56.096;12.664;2022-08-18T01:37:39;100934.31;;;17.44;100.00
13732;BME280;6937;56.096;12.664;2022-08-18T01:40:07;100917.00;;;17.37;100.00
13732;BME280;6937;56.096;12.664;2022-08-18T01:42:34;100914.94;;;17.31;100.00
13732;BME280;6937;56.096;12.664;2022-08-18T01:44:59;100916.66;;;17.22;100.00
13732;BME280;6937;56.096;12.664;2022-08-18T01:47:27;100899.59;;;17.22;100.00
13732;BME280;6937;56.096;12.664;2022-08-18T01:49:53;100902.53;;;17.28;100.00
13732;BME280;6937;56.096;12.664;2022-08-18T01:52:20;100883.38;;;17.31;100.00
13732;BME280;6937;56.096;12.664;2022-08-18T01:54:46;100869.94;;;17.39;100.00
13732;BME280;6937;56.096;12.664;2022-08-18T01:57:13;100852.56;;;17.42;100.00
13732;BME280;6937;56.096;12.664;2022-08-18T01:59:40;100825.38;;;17.44;100.00
13732;BME280;6937;56.096;12.664;2022-08-18T02:02:07;100824.91;;;17.48;100.00
13732;BME280;6937;56.096;12.664;2022-08-18T02:04:34;100817.81;;;17.47;100.00
13732;BME280;6937;56.096;12.664;2022-08-18T02:07:00;100803.63;;;17.45;100.00
13732;BME280;6937;56.096;12.664;2022-08-18T02:09:27;100794.88;;;17.51;100.00
13732;BME280;6937;56.096;12.664;2022-08-18T02:11:53;100784.78;;;17.53;100.00
13732;BME280;6937;56.096;12.664;2022-08-18T02:14:19;100764.41;;;17.41;100.00
13732;BME280;6937;56.096;12.664;2022-08-18T02:16:44;100778.75;;;17.42;100.00
13732;BME280;6937;56.096;12.664;2022-08-18T02:19:10;100780.63;;;17.41;100.00
13732;BME280;6937;56.096;12.664;2022-08-18T02:21:36;100765.56;;;17.38;100.00
13732;BME280;6937;56.096;12.664;2022-08-18T02:24:02;100700.56;;;17.40;100.00
13732;BME280;6937;56.096;12.664;2022-08-18T02:26:28;100709.97;;;17.54;100.00
13732;BME280;6937;56.096;12.664;2022-08-18T02:28:53;100681.72;;;17.48;100.00
13732;BME280;6937;56.096;12.664;2022-08-18T02:31:21;100683.63;;;17.56;100.00
13732;BME280;6937;56.096;12.664;2022-08-18T02:33:47;100669.00;;;17.58;100.00
13732;BME280;6937;56.096;12.664;2022-08-18T02:36:13;100643.50;;;17.61;100.00
13732;BME280;6937;56.096;12.664;2022-08-18T02:38:39;100625.97;;;17.65;100.00
13732;BME280;6937;56.096;12.664;2022-08-18T02:41:07;100606.72;;;17.68;100.00
13732;BME280;6937;56.096;12.664;2022-08-18T02:43:33;100594.38;;;17.65;100.00
13732;BME280;6937;56.096;12.664;2022-08-18T02:45:59;100585.03;;;17.60;100.00
13732;BME280;6937;56.096;12.664;2022-08-18T02:48:24;100575.69;;;17.54;100.00
13732;BME280;6937;56.096;12.664;2022-08-18T02:51:10;100543.50;;;17.61;100.00
13732;BME280;6937;56.096;12.664;2022-08-18T02:53:38;100488.97;;;17.73;100.00
13732;BME280;6937;56.096;12.664;2022-08-18T02:56:09;100460.13;;;17.82;100.00
13732;BME280;6937;56.096;12.664;2022-08-18T02:59:21;100389.81;;;17.82;100.00
13732;BME280;6937;56.096;12.664;2022-08-18T03:01:50;100342.72;;;17.84;100.00
13732;BME280;6937;56.096;12.664;2022-08-18T03:04:21;100276.94;;;17.92;100.00
13732;BME280;6937;56.096;12.664;2022-08-18T03:06:47;100248.75;;;17.95;100.00
13732;BME280;6937;56.096;12.664;2022-08-18T03:09:14;100203.44;;;17.97;100.00
13732;BME280;6937;56.096;12.664;2022-08-18T03:11:40;100149.19;;;17.98;100.00
13732;BME280;6937;56.096;12.664;2022-08-18T03:14:06;100080.41;;;17.93;100.00
13732;BME280;6937;56.096;12.664;2022-08-18T03:16:32;100055.22;;;18.00;100.00
13732;BME280;6937;56.096;12.664;2022-08-18T03:18:59;100009.09;;;18.02;100.00
13732;BME280;6937;56.096;12.664;2022-08-18T03:21:27;99975.94;;;18.00;100.00
13732;BME280;6937;56.096;12.664;2022-08-18T03:23:54;99940.81;;;18.00;100.00
13732;BME280;6937;56.096;12.664;2022-08-18T03:26:21;99924.94;;;17.97;100.00
13732;BME280;6937;56.096;12.664;2022-08-18T03:28:50;99904.88;;;17.91;100.00
13732;BME280;6937;56.096;12.664;2022-08-18T03:31:18;99885.13;;;17.91;100.00
13732;BME280;6937;56.096;12.664;2022-08-18T03:33:44;99864.97;;;17.93;100.00
13732;BME280;6937;56.096;12.664;2022-08-18T03:36:16;99829.78;;;18.01;100.00
13732;BME280;6937;56.096;12.664;2022-08-18T03:38:43;99788.78;;;18.12;100.00
13732;BME280;6937;56.096;12.664;2022-08-18T03:41:12;99746.44;;;18.19;100.00
13732;BME280;6937;56.096;12.664;2022-08-18T03:43:38;99712.06;;;18.28;100.00
13732;BME280;6937;56.096;12.664;2022-08-18T03:46:06;99677.81;;;18.35;100.00
13732;BME280;6937;56.096;12.664;2022-08-18T03:48:34;99635.56;;;18.34;100.00
13732;BME280;6937;56.096;12.664;2022-08-18T03:51:04;99584.44;;;18.39;100.00
13732;BME280;6937;56.096;12.664;2022-08-18T03:53:32;99563.88;;;18.45;100.00
13732;BME280;6937;56.096;12.664;2022-08-18T03:55:59;99543.06;;;18.45;100.00
13732;BME280;6937;56.096;12.664;2022-08-18T03:58:24;99524.81;;;18.47;100.00
13732;BME280;6937;56.096;12.664;2022-08-18T04:00:50;99512.13;;;18.48;100.00
13732;BME280;6937;56.096;12.664;2022-08-18T04:03:15;99512.75;;;18.50;100.00
13732;BME280;6937;56.096;12.664;2022-08-18T04:05:41;99509.50;;;18.54;100.00
13732;BME280;6937;56.096;12.664;2022-08-18T04:08:06;99499.97;;;18.58;100.00
13732;BME280;6937;56.096;12.664;2022-08-18T04:10:32;99491.84;;;18.58;100.00
13732;BME280;6937;56.096;12.664;2022-08-18T04:12:58;99489.16;;;18.58;100.00
13732;BME280;6937;56.096;12.664;2022-08-18T04:15:23;99484.13;;;18.55;100.00
13732;BME280;6937;56.096;12.664;2022-08-18T04:17:48;99477.44;;;18.51;100.00
13732;BME280;6937;56.096;12.664;2022-08-18T04:20:14;99484.00;;;18.49;100.00
13732;BME280;6937;56.096;12.664;2022-08-18T04:22:41;99458.19;;;18.46;100.00
13732;BME280;6937;56.096;12.664;2022-08-18T04:25:07;99460.06;;;18.46;100.00
13732;BME280;6937;56.096;12.664;2022-08-18T04:27:36;99451.03;;;18.39;100.00
13732;BME280;6937;56.096;12.664;2022-08-18T04:30:05;99435.13;;;18.29;100.00
13732;BME280;6937;56.096;12.664;2022-08-18T04:32:31;99444.28;;;18.28;100.00
13732;BME280;6937;56.096;12.664;2022-08-18T04:34:56;99445.69;;;18.24;100.00
13732;BME280;6937;56.096;12.664;2022-08-18T04:37:22;99430.41;;;18.16;100.00
13732;BME280;6937;56.096;12.664;2022-08-18T04:39:48;99434.41;;;18.20;100.00
13732;BME280;6937;56.096;12.664;2022-08-18T04:42:13;99412.34;;;18.17;100.00
13732;BME280;6937;56.096;12.664;2022-08-18T04:44:39;99406.53;;;18.20;100.00
13732;BME280;6937;56.096;12.664;2022-08-18T04:47:05;99393.00;;;18.20;100.00
13732;BME280;6937;56.096;12.664;2022-08-18T04:49:33;99356.25;;;18.25;100.00
13732;BME280;6937;56.096;12.664;2022-08-18T04:51:58;99354.84;;;18.29;100.00
13732;BME280;6937;56.096;12.664;2022-08-18T04:54:42;99351.47;;;18.27;100.00
13732;BME280;6937;56.096;12.664;2022-08-18T04:57:16;99335.13;;;18.35;100.00
13732;BME280;6937;56.096;12.664;2022-08-18T04:59:44;99316.19;;;18.35;100.00
13732;BME280;6937;56.096;12.664;2022-08-18T05:02:16;99296.59;;;18.33;100.00
13732;BME280;6937;56.096;12.664;2022-08-18T05:04:42;99299.50;;;18.32;100.00
13732;BME280;6937;56.096;12.664;2022-08-18T05:07:12;99285.78;;;18.33;100.00
13732;BME280;6937;56.096;12.664;2022-08-18T05:09:38;99273.75;;;18.36;100.00
13732;BME280;6937;56.096;12.664;2022-08-18T05:12:06;99230.44;;;18.29;100.00
13732;BME280;6937;56.096;12.664;2022-08-18T05:14:32;99236.31;;;18.40;100.00
13732;BME280;6937;56.096;12.664;2022-08-18T05:16:59;99194.91;;;18.39;100.00
13732;BME280;6937;56.096;12.664;2022-08-18T05:19:26;99173.09;;;18.47;100.00
13732;BME280;6937;56.096;12.664;2022-08-18T05:21:53;99121.41;;;18.70;100.00
13732;BME280;6937;56.096;12.664;2022-08-18T05:24:20;98990.06;;;18.80;100.00
13732;BME280;6937;56.096;12.664;2022-08-18T05:26:47;98950.28;;;18.81;100.00
13732;BME280;6937;56.096;12.664;2022-08-18T05:29:13;98928.44;;;18.89;100.00
13732;BME280;6937;56.096;12.664;2022-08-18T05:31:40;98879.69;;;18.96;100.00
13732;BME280;6937;56.096;12.664;2022-08-18T05:34:06;98849.69;;;18.97;100.00
13732;BME280;6937;56.096;12.664;2022-08-18T05:42:20;98787.59;;;19.15;100.00
13732;BME280;6937;56.096;12.664;2022-08-18T05:44:49;98789.47;;;19.15;100.00
13732;BME280;6937;56.096;12.664;2022-08-18T05:47:16;98780.06;;;19.17;100.00
13732;BME280;6937;56.096;12.664;2022-08-18T05:49:45;98761.31;;;19.16;100.00
13732;BME280;6937;56.096;12.664;2022-08-18T05:52:20;98762.59;;;19.13;100.00
13732;BME280;6937;56.096;12.664;2022-08-18T05:54:56;98748.03;;;19.14;100.00
13732;BME280;6937;56.096;12.664;2022-08-18T05:57:48;98729.66;;;19.23;100.00
13732;BME280;6937;56.096;12.664;2022-08-18T06:00:18;98704.59;;;19.34;100.00
13732;BME280;6937;56.096;12.664;2022-08-18T06:02:46;98682.66;;;19.42;100.00
13732;BME280;6937;56.096;12.664;2022-08-18T06:05:29;98679.31;;;19.47;100.00
13732;BME280;6937;56.096;12.664;2022-08-18T06:08:05;98667.50;;;19.66;100.00
13732;BME280;6937;56.096;12.664;2022-08-18T06:10:34;98622.03;;;19.93;100.00
13732;BME280;6937;56.096;12.664;2022-08-18T06:13:01;98594.84;;;19.99;100.00
13732;BME280;6937;56.096;12.664;2022-08-18T06:18:26;98679.91;;;19.80;100.00
13732;BME280;6937;56.096;12.664;2022-08-18T06:34:50;98733.34;;;19.73;100.00
13732;BME280;6937;56.096;12.664;2022-08-18T06:37:41;98723.06;;;19.82;100.00
13732;BME280;6937;56.096;12.664;2022-08-18T06:40:29;98744.56;;;19.76;100.00
13732;BME280;6937;56.096;12.664;2022-08-18T06:42:55;98755.84;;;19.73;100.00
13732;BME280;6937;56.096;12.664;2022-08-18T06:45:27;98768.56;;;19.73;100.00
13732;BME280;6937;56.096;12.664;2022-08-18T06:48:26;98761.66;;;19.77;100.00
13732;BME280;6937;56.096;12.664;2022-08-18T06:50:59;98741.84;;;19.83;100.00
13732;BME280;6937;56.096;12.664;2022-08-18T06:58:48;98735.63;;;20.01;100.00
13732;BME280;6937;56.096;12.664;2022-08-18T07:01:17;98726.53;;;20.13;100.00
13732;BME280;6937;56.096;12.664;2022-08-18T07:03:56;98742.59;;;20.15;100.00
13732;BME280;6937;56.096;12.664;2022-08-18T07:06:25;98766.84;;;20.10;100.00
13732;BME280;6937;56.096;12.664;2022-08-18T07:08:54;98797.75;;;20.09;100.00
13732;BME280;6937;56.096;12.664;2022-08-18T07:11:26;98803.41;;;20.32;100.00
13732;BME280;6937;56.096;12.664;2022-08-18T07:14:19;98814.03;;;20.58;100.00
13732;BME280;6937;56.096;12.664;2022-08-18T07:16:45;98911.81;;;20.52;100.00
13732;BME280;6937;56.096;12.664;2022-08-18T07:19:13;98972.50;;;20.64;100.00
13732;BME280;6937;56.096;12.664;2022-08-18T07:21:41;99056.56;;;20.77;100.00
13732;BME280;6937;56.096;12.664;2022-08-18T07:24:25;99126.53;;;20.75;100.00
13732;BME280;6937;56.096;12.664;2022-08-18T07:27:04;99184.16;;;20.77;100.00
13732;BME280;6937;56.096;12.664;2022-08-18T07:29:36;99182.56;;;21.07;100.00
13732;BME280;6937;56.096;12.664;2022-08-18T07:32:12;99193.59;;;21.26;100.00
13732;BME280;6937;56.096;12.664;2022-08-18T07:34:46;99259.94;;;21.49;100.00
13732;BME280;6937;56.096;12.664;2022-08-18T07:37:20;99325.53;;;21.66;100.00
13732;BME280;6937;56.096;12.664;2022-08-18T07:42:43;99597.69;;;21.51;100.00
13732;BME280;6937;56.096;12.664;2022-08-18T07:45:25;99699.09;;;21.45;100.00
13732;BME280;6937;56.096;12.664;2022-08-18T07:48:05;99735.03;;;21.34;100.00
13732;BME280;6937;56.096;12.664;2022-08-18T07:56:31;99767.94;;;21.05;100.00
13732;BME280;6937;56.096;12.664;2022-08-18T07:59:11;99754.09;;;21.00;100.00
13732;BME280;6937;56.096;12.664;2022-08-18T08:01:48;99756.22;;;20.98;100.00
13732;BME280;6937;56.096;12.664;2022-08-18T08:07:08;99733.88;;;21.02;100.00
13732;BME280;6937;56.096;12.664;2022-08-18T08:09:50;99755.81;;;21.07;100.00
13732;BME280;6937;56.096;12.664;2022-08-18T08:15:20;99741.75;;;21.45;100.00
13732;BME280;6937;56.096;12.664;2022-08-18T08:18:05;99784.25;;;21.65;100.00
13732;BME280;6937;56.096;12.664;2022-08-18T08:20:56;99820.56;;;21.92;100.00
13732;BME280;6937;56.096;12.664;2022-08-18T08:30:04;100009.97;;;22.60;100.00
13732;BME280;6937;56.096;12.664;2022-08-18T08:32:32;100073.94;;;22.71;100.00
13732;BME280;6937;56.096;12.664;2022-08-18T08:35:07;100129.28;;;22.85;100.00
13732;BME280;6937;56.096;12.664;2022-08-18T08:37:42;100281.75;;;22.99;100.00
13732;BME280;6937;56.096;12.664;2022-08-18T08:40:22;100412.28;;;23.16;100.00
13732;BME280;6937;56.096;12.664;2022-08-18T08:42:57;100489.69;;;23.21;100.00
13732;BME280;6937;56.096;12.664;2022-08-18T08:45:32;100552.22;;;23.23;100.00
13732;BME280;6937;56.096;12.664;2022-08-18T08:50:46;100618.91;;;23.20;100.00
13732;BME280;6937;56.096;12.664;2022-08-18T08:53:36;100641.88;;;23.32;100.00
13732;BME280;6937;56.096;12.664;2022-08-18T08:56:08;100655.94;;;23.50;100.00
13732;BME280;6937;56.096;12.664;2022-08-18T08:58:48;100659.00;;;23.69;100.00
13732;BME280;6937;56.096;12.664;2022-08-18T09:09:40;100792.56;;;23.98;100.00
13732;BME280;6937;56.096;12.664;2022-08-18T09:12:31;100812.59;;;24.05;100.00
13732;BME280;6937;56.096;12.664;2022-08-18T09:15:24;100830.72;;;24.13;100.00
13732;BME280;6937;56.096;12.664;2022-08-18T09:23:37;100879.59;;;24.50;100.00
13732;BME280;6937;56.096;12.664;2022-08-18T09:28:54;100976.06;;;24.72;100.00
13732;BME280;6937;56.096;12.664;2022-08-18T09:31:23;101055.13;;;24.88;100.00
13732;BME280;6937;56.096;12.664;2022-08-18T09:33:59;101087.00;;;25.02;100.00
13732;BME280;6937;56.096;12.664;2022-08-18T09:42:47;101178.94;;;25.45;100.00
13732;BME280;6937;56.096;12.664;2022-08-18T09:54:20;101253.34;;;26.26;100.00
13732;BME280;6937;56.096;12.664;2022-08-18T10:02:00;101318.53;;;27.06;100.00
13732;BME280;6937;56.096;12.664;2022-08-18T10:04:34;101337.59;;;27.20;100.00
13732;BME280;6937;56.096;12.664;2022-08-18T10:07:18;101346.69;;;27.27;100.00
13732;BME280;6937;56.096;12.664;2022-08-18T10:09:53;101367.44;;;27.36;100.00
13732;BME280;6937;56.096;12.664;2022-08-18T10:12:35;101376.31;;;27.38;100.00
13732;BME280;6937;56.096;12.664;2022-08-18T10:21:15;101421.22;;;27.72;100.00
13732;BME280;6937;56.096;12.664;2022-08-18T10:29:55;101381.09;;;27.91;100.00
13732;BME280;6937;56.096;12.664;2022-08-18T10:34:49;101407.63;;;28.38;100.00
13732;BME280;6937;56.096;12.664;2022-08-18T10:39:59;101404.84;;;28.57;100.00
13732;BME280;6937;56.096;12.664;2022-08-18T10:42:33;101401.25;;;28.70;100.00
13732;BME280;6937;56.096;12.664;2022-08-18T10:45:11;101404.41;;;28.87;100.00
13732;BME280;6937;56.096;12.664;2022-08-18T10:47:37;101419.59;;;29.02;100.00
13732;BME280;6937;56.096;12.664;2022-08-18T10:50:08;101401.38;;;29.08;100.00
13732;BME280;6937;56.096;12.664;2022-08-18T10:53:01;101402.16;;;29.21;100.00
13732;BME280;6937;56.096;12.664;2022-08-18T10:55:43;101421.63;;;29.40;100.00
13732;BME280;6937;56.096;12.664;2022-08-18T11:01:18;101421.78;;;29.51;100.00
13732;BME280;6937;56.096;12.664;2022-08-18T11:04:00;101425.66;;;29.37;100.00
13732;BME280;6937;56.096;12.664;2022-08-18T11:06:26;101434.09;;;29.49;100.00
13732;BME280;6937;56.096;12.664;2022-08-18T11:08:59;101434.28;;;29.54;100.00
13732;BME280;6937;56.096;12.664;2022-08-18T11:11:33;101435.97;;;29.55;100.00
13732;BME280;6937;56.096;12.664;2022-08-18T11:14:06;101439.34;;;29.57;100.00
13732;BME280;6937;56.096;12.664;2022-08-18T11:16:52;101408.75;;;29.14;100.00
13732;BME280;6937;56.096;12.664;2022-08-18T11:19:20;101439.72;;;29.03;100.00
13732;BME280;6937;56.096;12.664;2022-08-18T11:21:48;101442.53;;;28.83;100.00
13732;BME280;6937;56.096;12.664;2022-08-18T11:24:26;101447.81;;;28.78;100.00
13732;BME280;6937;56.096;12.664;2022-08-18T11:27:01;101410.56;;;28.56;100.00
13732;BME280;6937;56.096;12.664;2022-08-18T11:29:29;101427.06;;;28.43;100.00
13732;BME280;6937;56.096;12.664;2022-08-18T11:32:02;101479.34;;;28.82;100.00
13732;BME280;6937;56.096;12.664;2022-08-18T11:34:35;101482.28;;;29.07;100.00
13732;BME280;6937;56.096;12.664;2022-08-18T11:37:08;101438.03;;;28.95;100.00
13732;BME280;6937;56.096;12.664;2022-08-18T11:39:48;101427.25;;;28.87;100.00
13732;BME280;6937;56.096;12.664;2022-08-18T11:42:15;101439.53;;;28.98;100.00
13732;BME280;6937;56.096;12.664;2022-08-18T11:44:42;101464.25;;;29.31;100.00
13732;BME280;6937;56.096;12.664;2022-08-18T11:47:16;101471.53;;;29.63;100.00
13732;BME280;6937;56.096;12.664;2022-08-18T11:49:57;101461.72;;;29.80;100.00
13732;BME280;6937;56.096;12.664;2022-08-18T11:52:31;101483.06;;;29.98;100.00
13732;BME280;6937;56.096;12.664;2022-08-18T11:55:02;101479.69;;;30.27;100.00
13732;BME280;6937;56.096;12.664;2022-08-18T11:57:47;101438.19;;;30.15;100.00
13732;BME280;6937;56.096;12.664;2022-08-18T12:05:56;101376.59;;;29.97;100.00
13732;BME280;6937;56.096;12.664;2022-08-18T12:08:50;101366.31;;;29.79;100.00
13732;BME280;6937;56.096;12.664;2022-08-18T12:11:24;101449.34;;;30.27;100.00
13732;BME280;6937;56.096;12.664;2022-08-18T12:14:01;101484.94;;;30.66;100.00
13732;BME280;6937;56.096;12.664;2022-08-18T12:16:35;101516.59;;;31.13;100.00
13732;BME280;6937;56.096;12.664;2022-08-18T12:19:02;101560.81;;;31.56;100.00
13732;BME280;6937;56.096;12.664;2022-08-18T12:21:28;101484.97;;;31.46;100.00
13732;BME280;6937;56.096;12.664;2022-08-18T12:23:54;101423.22;;;31.04;100.00
13732;BME280;6937;56.096;12.664;2022-08-18T12:26:19;101354.84;;;30.63;100.00
13732;BME280;6937;56.096;12.664;2022-08-18T12:28:45;101376.28;;;30.61;100.00
13732;BME280;6937;56.096;12.664;2022-08-18T12:31:10;101441.25;;;31.06;100.00
13732;BME280;6937;56.096;12.664;2022-08-18T12:33:36;101505.19;;;31.64;100.00
13732;BME280;6937;56.096;12.664;2022-08-18T12:36:04;101455.16;;;31.54;100.00
13732;BME280;6937;56.096;12.664;2022-08-18T12:38:32;101442.31;;;31.42;100.00
13732;BME280;6937;56.096;12.664;2022-08-18T12:40:57;101431.28;;;31.42;100.00
13732;BME280;6937;56.096;12.664;2022-08-18T12:43:24;101320.56;;;30.71;100.00
13732;BME280;6937;56.096;12.664;2022-08-18T12:45:49;101276.84;;;30.06;100.00
13732;BME280;6937;56.096;12.664;2022-08-18T12:48:15;101308.59;;;29.91;100.00
13732;BME280;6937;56.096;12.664;2022-08-18T12:50:47;101320.75;;;29.77;100.00
13732;BME280;6937;56.096;12.664;2022-08-18T12:53:13;101344.31;;;29.72;100.00
13732;BME280;6937;56.096;12.664;2022-08-18T12:55:43;101337.56;;;29.68;100.00
13732;BME280;6937;56.096;12.664;2022-08-18T12:58:08;101372.66;;;29.86;100.00
13732;BME280;6937;56.096;12.664;2022-08-18T13:00:34;101387.53;;;30.10;100.00
13732;BME280;6937;56.096;12.664;2022-08-18T13:03:00;101405.44;;;30.26;100.00
13732;BME280;6937;56.096;12.664;2022-08-18T13:05:26;101415.75;;;30.37;100.00
13732;BME280;6937;56.096;12.664;2022-08-18T13:07:53;101450.78;;;30.61;100.00
13732;BME280;6937;56.096;12.664;2022-08-18T13:10:19;101388.44;;;30.29;100.00
13732;BME280;6937;56.096;12.664;2022-08-18T13:12:44;101339.75;;;29.91;100.00
13732;BME280;6937;56.096;12.664;2022-08-18T13:15:10;101366.03;;;29.94;100.00
13732;BME280;6937;56.096;12.664;2022-08-18T13:17:37;101354.59;;;29.90;100.00
13732;BME280;6937;56.096;12.664;2022-08-18T13:20:09;101356.50;;;29.90;100.00
13732;BME280;6937;56.096;12.664;2022-08-18T13:22:36;101376.00;;;29.95;100.00
13732;BME280;6937;56.096;12.664;2022-08-18T13:25:05;101362.22;;;29.88;100.00
13732;BME280;6937;56.096;12.664;2022-08-18T13:27:33;101372.59;;;29.93;100.00
13732;BME280;6937;56.096;12.664;2022-08-18T13:29:58;101393.31;;;30.02;100.00
13732;BME280;6937;56.096;12.664;2022-08-18T13:32:24;101370.50;;;29.88;100.00
13732;BME280;6937;56.096;12.664;2022-08-18T13:34:50;101359.91;;;29.85;100.00
13732;BME280;6937;56.096;12.664;2022-08-18T13:37:16;101355.88;;;29.81;100.00
13732;BME280;6937;56.096;12.664;2022-08-18T13:39:41;101356.75;;;29.82;100.00
13732;BME280;6937;56.096;12.664;2022-08-18T13:42:07;101393.72;;;30.05;100.00
13732;BME280;6937;56.096;12.664;2022-08-18T13:44:32;101374.22;;;30.00;100.00
13732;BME280;6937;56.096;12.664;2022-08-18T13:46:57;101385.66;;;30.04;100.00
13732;BME280;6937;56.096;12.664;2022-08-18T13:49:23;101445.00;;;30.44;100.00
13732;BME280;6937;56.096;12.664;2022-08-18T13:51:51;101471.69;;;30.75;100.00
13732;BME280;6937;56.096;12.664;2022-08-18T13:54:29;101449.31;;;30.83;100.00
13732;BME280;6937;56.096;12.664;2022-08-18T13:56:56;101402.50;;;30.52;100.00
13732;BME280;6937;56.096;12.664;2022-08-18T13:59:22;101433.78;;;30.64;100.00
13732;BME280;6937;56.096;12.664;2022-08-18T14:01:51;101412.38;;;30.59;100.00
13732;BME280;6937;56.096;12.664;2022-08-18T14:04:17;101405.25;;;30.52;100.00
13732;BME280;6937;56.096;12.664;2022-08-18T14:06:43;101391.75;;;30.44;100.00
13732;BME280;6937;56.096;12.664;2022-08-18T14:09:08;101362.38;;;30.25;100.00
13732;BME280;6937;56.096;12.664;2022-08-18T14:11:34;101342.00;;;30.01;100.00
13732;BME280;6937;56.096;12.664;2022-08-18T14:14:02;101372.84;;;30.16;100.00
13732;BME280;6937;56.096;12.664;2022-08-18T14:16:29;101384.66;;;30.23;100.00
13732;BME280;6937;56.096;12.664;2022-08-18T14:18:54;101397.13;;;30.32;100.00
13732;BME280;6937;56.096;12.664;2022-08-18T14:21:43;101386.47;;;30.36;100.00
13732;BME280;6937;56.096;12.664;2022-08-18T14:24:28;101285.59;;;29.72;100.00
13732;BME280;6937;56.096;12.664;2022-08-18T14:27:13;101270.84;;;29.22;100.00
13732;BME280;6937;56.096;12.664;2022-08-18T14:29:39;101294.56;;;29.23;100.00
13732;BME280;6937;56.096;12.664;2022-08-18T14:32:08;101313.22;;;29.27;100.00
13732;BME280;6937;56.096;12.664;2022-08-18T14:34:34;101352.75;;;29.46;100.00
13732;BME280;6937;56.096;12.664;2022-08-18T14:36:59;101393.91;;;29.72;100.00
13732;BME280;6937;56.096;12.664;2022-08-18T14:39:25;101405.91;;;29.91;100.00
13732;BME280;6937;56.096;12.664;2022-08-18T14:41:50;101418.94;;;30.09;100.00
13732;BME280;6937;56.096;12.664;2022-08-18T14:44:16;101431.22;;;30.38;100.00
13732;BME280;6937;56.096;12.664;2022-08-18T14:46:41;101443.81;;;30.58;100.00
13732;BME280;6937;56.096;12.664;2022-08-18T14:49:12;101455.97;;;30.76;100.00
13732;BME280;6937;56.096;12.664;2022-08-18T14:51:38;101430.50;;;30.74;100.00
13732;BME280;6937;56.096;12.664;2022-08-18T14:54:11;101387.38;;;30.54;100.00
13732;BME280;6937;56.096;12.664;2022-08-18T14:56:37;101395.38;;;30.62;100.00